sensor_id;sensor_type;location;lat;lon;timestamp;temperature;humidity
66710;DHT22;53624;0.000;0.000;2023-07-08T00:00:07;23.00;97.20
66710;DHT22;53624;0.000;0.000;2023-07-08T00:02:38;22.90;97.70
66710;DHT22;53624;0.000;0.000;2023-07-08T00:05:07;22.70;97.40
66710;DHT22;53624;0.000;0.000;2023-07-08T00:07:34;22.90;97.60
66710;DHT22;53624;0.000;0.000;2023-07-08T00:10:04;22.90;98.00
66710;DHT22;53624;0.000;0.000;2023-07-08T00:12:35;22.80;97.90
66710;DHT22;53624;0.000;0.000;2023-07-08T00:15:03;22.80;98.30
66710;DHT22;53624;0.000;0.000;2023-07-08T00:17:31;22.80;98.40
66710;DHT22;53624;0.000;0.000;2023-07-08T00:20:00;22.60;98.20
66710;DHT22;53624;0.000;0.000;2023-07-08T00:22:27;22.50;98.40
66710;DHT22;53624;0.000;0.000;2023-07-08T00:24:55;22.50;98.70
66710;DHT22;53624;0.000;0.000;2023-07-08T00:27:22;22.30;99.40
66710;DHT22;53624;0.000;0.000;2023-07-08T00:29:50;22.40;99.90
66710;DHT22;53624;0.000;0.000;2023-07-08T00:32:17;22.40;99.50
66710;DHT22;53624;0.000;0.000;2023-07-08T00:34:45;22.40;99.60
66710;DHT22;53624;0.000;0.000;2023-07-08T00:37:14;22.50;99.30
66710;DHT22;53624;0.000;0.000;2023-07-08T00:39:41;22.50;98.90
66710;DHT22;53624;0.000;0.000;2023-07-08T00:42:14;22.50;98.60
66710;DHT22;53624;0.000;0.000;2023-07-08T00:44:42;22.50;99.60
66710;DHT22;53624;0.000;0.000;2023-07-08T00:47:11;22.60;99.90
66710;DHT22;53624;0.000;0.000;2023-07-08T00:49:40;22.60;99.60
66710;DHT22;53624;0.000;0.000;2023-07-08T00:52:20;22.50;99.90
66710;DHT22;53624;0.000;0.000;2023-07-08T00:54:49;22.50;99.90
66710;DHT22;53624;0.000;0.000;2023-07-08T00:57:16;22.60;99.90
66710;DHT22;53624;0.000;0.000;2023-07-08T00:59:45;22.50;99.90
66710;DHT22;53624;0.000;0.000;2023-07-08T01:02:13;22.30;99.90
66710;DHT22;53624;0.000;0.000;2023-07-08T01:04:43;22.30;99.90
66710;DHT22;53624;0.000;0.000;2023-07-08T01:07:11;22.40;99.90
66710;DHT22;53624;0.000;0.000;2023-07-08T01:09:41;22.40;99.90
66710;DHT22;53624;0.000;0.000;2023-07-08T01:12:10;22.30;99.90
66710;DHT22;53624;0.000;0.000;2023-07-08T01:14:38;22.30;99.90
66710;DHT22;53624;0.000;0.000;2023-07-08T01:17:08;22.20;99.90
66710;DHT22;53624;0.000;0.000;2023-07-08T01:19:39;22.20;99.90
66710;DHT22;53624;0.000;0.000;2023-07-08T01:22:08;22.20;99.90
66710;DHT22;53624;0.000;0.000;2023-07-08T01:24:36;22.20;99.90
66710;DHT22;53624;0.000;0.000;2023-07-08T01:27:05;22.10;99.90
66710;DHT22;53624;0.000;0.000;2023-07-08T01:29:33;22.20;99.60
66710;DHT22;53624;0.000;0.000;2023-07-08T01:32:00;22.30;99.30
66710;DHT22;53624;0.000;0.000;2023-07-08T01:34:29;22.30;99.80
66710;DHT22;53624;0.000;0.000;2023-07-08T01:36:56;22.30;98.80
66710;DHT22;53624;0.000;0.000;2023-07-08T01:39:28;22.40;98.20
66710;DHT22;53624;0.000;0.000;2023-07-08T01:41:56;22.30;99.10
66710;DHT22;53624;0.000;0.000;2023-07-08T01:44:26;22.20;99.40
66710;DHT22;53624;0.000;0.000;2023-07-08T01:46:54;22.10;99.90
66710;DHT22;53624;0.000;0.000;2023-07-08T01:49:22;22.00;99.90
66710;DHT22;53624;0.000;0.000;2023-07-08T01:51:50;22.10;99.90
66710;DHT22;53624;0.000;0.000;2023-07-08T01:54:18;22.00;99.90
66710;DHT22;53624;0.000;0.000;2023-07-08T01:56:47;22.10;99.90
66710;DHT22;53624;0.000;0.000;2023-07-08T01:59:17;22.10;99.90
66710;DHT22;53624;0.000;0.000;2023-07-08T02:01:45;22.20;99.90
66710;DHT22;53624;0.000;0.000;2023-07-08T02:04:13;22.20;99.90
66710;DHT22;53624;0.000;0.000;2023-07-08T02:06:40;22.20;99.90
66710;DHT22;53624;0.000;0.000;2023-07-08T02:09:09;22.10;99.90
66710;DHT22;53624;0.000;0.000;2023-07-08T02:11:37;22.10;99.90
66710;DHT22;53624;0.000;0.000;2023-07-08T02:14:06;22.20;99.90
66710;DHT22;53624;0.000;0.000;2023-07-08T02:16:33;22.10;99.90
66710;DHT22;53624;0.000;0.000;2023-07-08T02:19:00;22.00;99.90
66710;DHT22;53624;0.000;0.000;2023-07-08T02:21:28;22.00;99.90
66710;DHT22;53624;0.000;0.000;2023-07-08T02:23:57;21.80;99.90
66710;DHT22;53624;0.000;0.000;2023-07-08T02:26:24;21.70;99.90
66710;DHT22;53624;0.000;0.000;2023-07-08T02:28:52;21.70;99.90
66710;DHT22;53624;0.000;0.000;2023-07-08T02:31:21;21.70;99.90
66710;DHT22;53624;0.000;0.000;2023-07-08T02:33:50;21.80;99.90
66710;DHT22;53624;0.000;0.000;2023-07-08T02:36:18;21.80;99.90
66710;DHT22;53624;0.000;0.000;2023-07-08T02:38:45;21.90;99.90
66710;DHT22;53624;0.000;0.000;2023-07-08T02:41:13;21.90;99.90
66710;DHT22;53624;0.000;0.000;2023-07-08T02:43:40;21.80;99.90
66710;DHT22;53624;0.000;0.000;2023-07-08T02:46:08;21.70;99.90
66710;DHT22;53624;0.000;0.000;2023-07-08T02:48:36;21.60;99.90
66710;DHT22;53624;0.000;0.000;2023-07-08T02:51:04;21.70;99.90
66710;DHT22;53624;0.000;0.000;2023-07-08T02:53:32;21.60;99.90
66710;DHT22;53624;0.000;0.000;2023-07-08T02:56:00;21.40;99.90
66710;DHT22;53624;0.000;0.000;2023-07-08T02:58:27;21.40;99.90
66710;DHT22;53624;0.000;0.000;2023-07-08T03:00:55;21.50;99.90
66710;DHT22;53624;0.000;0.000;2023-07-08T03:03:24;21.40;99.90
66710;DHT22;53624;0.000;0.000;2023-07-08T03:05:55;21.40;99.90
66710;DHT22;53624;0.000;0.000;2023-07-08T03:08:23;21.40;99.90
66710;DHT22;53624;0.000;0.000;2023-07-08T03:10:54;21.40;99.90
66710;DHT22;53624;0.000;0.000;2023-07-08T03:13:22;21.40;99.90
66710;DHT22;53624;0.000;0.000;2023-07-08T03:15:50;21.40;99.90
66710;DHT22;53624;0.000;0.000;2023-07-08T03:18:17;21.40;99.90
66710;DHT22;53624;0.000;0.000;2023-07-08T03:20:47;21.40;99.90
66710;DHT22;53624;0.000;0.000;2023-07-08T03:23:17;21.40;99.90
66710;DHT22;53624;0.000;0.000;2023-07-08T03:25:44;21.40;99.90
66710;DHT22;53624;0.000;0.000;2023-07-08T03:28:12;21.30;99.90
66710;DHT22;53624;0.000;0.000;2023-07-08T03:30:42;21.30;99.90
66710;DHT22;53624;0.000;0.000;2023-07-08T03:33:11;21.30;99.90
66710;DHT22;53624;0.000;0.000;2023-07-08T03:35:40;21.30;99.90
66710;DHT22;53624;0.000;0.000;2023-07-08T03:38:08;21.40;99.90
66710;DHT22;53624;0.000;0.000;2023-07-08T03:40:36;21.30;99.90
66710;DHT22;53624;0.000;0.000;2023-07-08T03:43:04;21.30;99.90
66710;DHT22;53624;0.000;0.000;2023-07-08T03:45:31;21.10;99.90
66710;DHT22;53624;0.000;0.000;2023-07-08T03:47:59;21.10;99.90
66710;DHT22;53624;0.000;0.000;2023-07-08T04:08:02;20.90;99.90
66710;DHT22;53624;0.000;0.000;2023-07-08T04:13:31;20.90;99.90
66710;DHT22;53624;0.000;0.000;2023-07-08T04:15:59;20.80;99.90
66710;DHT22;53624;0.000;0.000;2023-07-08T04:18:35;20.80;99.90
66710;DHT22;53624;0.000;0.000;2023-07-08T04:28:33;20.70;99.90
66710;DHT22;53624;0.000;0.000;2023-07-08T04:31:26;20.60;99.90
66710;DHT22;53624;0.000;0.000;2023-07-08T04:34:14;20.50;99.90
66710;DHT22;53624;0.000;0.000;2023-07-08T04:36:57;20.50;99.90
66710;DHT22;53624;0.000;0.000;2023-07-08T04:44:30;20.40;99.90
66710;DHT22;53624;0.000;0.000;2023-07-08T04:53:57;20.30;99.90
66710;DHT22;53624;0.000;0.000;2023-07-08T04:59:46;20.00;99.90
66710;DHT22;53624;0.000;0.000;2023-07-08T05:02:14;19.60;99.90
66710;DHT22;53624;0.000;0.000;2023-07-08T05:04:41;19.70;99.90
66710;DHT22;53624;0.000;0.000;2023-07-08T05:07:09;19.90;99.90
66710;DHT22;53624;0.000;0.000;2023-07-08T05:09:38;19.80;99.90
66710;DHT22;53624;0.000;0.000;2023-07-08T05:12:05;19.90;99.90
66710;DHT22;53624;0.000;0.000;2023-07-08T05:14:33;19.90;99.90
66710;DHT22;53624;0.000;0.000;2023-07-08T05:17:01;19.90;99.90
66710;DHT22;53624;0.000;0.000;2023-07-08T05:19:28;19.90;99.90
66710;DHT22;53624;0.000;0.000;2023-07-08T05:21:56;19.90;99.90
66710;DHT22;53624;0.000;0.000;2023-07-08T05:24:23;19.90;99.90
66710;DHT22;53624;0.000;0.000;2023-07-08T05:26:52;19.70;99.90
66710;DHT22;53624;0.000;0.000;2023-07-08T05:29:19;19.60;99.90
66710;DHT22;53624;0.000;0.000;2023-07-08T05:31:47;19.70;99.90
66710;DHT22;53624;0.000;0.000;2023-07-08T05:34:14;19.70;99.90
66710;DHT22;53624;0.000;0.000;2023-07-08T05:36:42;19.90;99.90
66710;DHT22;53624;0.000;0.000;2023-07-08T05:39:09;20.10;99.90
66710;DHT22;53624;0.000;0.000;2023-07-08T05:41:37;20.10;99.90
66710;DHT22;53624;0.000;0.000;2023-07-08T05:44:06;20.30;99.90
66710;DHT22;53624;0.000;0.000;2023-07-08T05:46:33;20.40;99.90
66710;DHT22;53624;0.000;0.000;2023-07-08T05:49:00;20.70;99.90
66710;DHT22;53624;0.000;0.000;2023-07-08T05:51:28;20.80;99.90
66710;DHT22;53624;0.000;0.000;2023-07-08T05:53:55;21.00;99.90
66710;DHT22;53624;0.000;0.000;2023-07-08T05:56:23;21.10;99.90
66710;DHT22;53624;0.000;0.000;2023-07-08T05:58:50;21.10;99.90
66710;DHT22;53624;0.000;0.000;2023-07-08T06:01:19;21.10;99.90
66710;DHT22;53624;0.000;0.000;2023-07-08T06:03:47;21.20;99.90
66710;DHT22;53624;0.000;0.000;2023-07-08T06:06:14;21.30;99.90
66710;DHT22;53624;0.000;0.000;2023-07-08T06:08:42;21.30;99.90
66710;DHT22;53624;0.000;0.000;2023-07-08T06:11:09;21.40;99.90
66710;DHT22;53624;0.000;0.000;2023-07-08T06:13:37;21.60;99.90
66710;DHT22;53624;0.000;0.000;2023-07-08T06:16:04;21.70;99.90
66710;DHT22;53624;0.000;0.000;2023-07-08T06:18:33;21.80;99.90
66710;DHT22;53624;0.000;0.000;2023-07-08T06:21:01;22.10;99.90
66710;DHT22;53624;0.000;0.000;2023-07-08T06:23:28;22.30;99.90
66710;DHT22;53624;0.000;0.000;2023-07-08T06:26:05;22.50;99.90
66710;DHT22;53624;0.000;0.000;2023-07-08T06:28:42;22.80;99.90
66710;DHT22;53624;0.000;0.000;2023-07-08T06:31:10;23.20;99.90
66710;DHT22;53624;0.000;0.000;2023-07-08T06:33:39;23.70;99.90
66710;DHT22;53624;0.000;0.000;2023-07-08T06:39:05;24.60;99.90
66710;DHT22;53624;0.000;0.000;2023-07-08T06:41:35;25.00;99.90
66710;DHT22;53624;0.000;0.000;2023-07-08T06:44:33;25.30;99.90
66710;DHT22;53624;0.000;0.000;2023-07-08T06:47:01;25.50;99.90
66710;DHT22;53624;0.000;0.000;2023-07-08T06:49:30;25.80;99.90
66710;DHT22;53624;0.000;0.000;2023-07-08T06:51:58;26.10;99.80
66710;DHT22;53624;0.000;0.000;2023-07-08T06:54:26;26.40;98.80
66710;DHT22;53624;0.000;0.000;2023-07-08T06:56:54;26.50;98.00
66710;DHT22;53624;0.000;0.000;2023-07-08T06:59:21;26.40;96.60
66710;DHT22;53624;0.000;0.000;2023-07-08T07:01:49;26.50;97.00
66710;DHT22;53624;0.000;0.000;2023-07-08T07:04:16;26.50;97.00
66710;DHT22;53624;0.000;0.000;2023-07-08T07:06:45;26.60;97.10
66710;DHT22;53624;0.000;0.000;2023-07-08T07:09:13;26.70;96.70
66710;DHT22;53624;0.000;0.000;2023-07-08T07:11:40;26.80;96.00
66710;DHT22;53624;0.000;0.000;2023-07-08T07:14:07;26.80;96.20
66710;DHT22;53624;0.000;0.000;2023-07-08T07:16:35;26.50;95.50
66710;DHT22;53624;0.000;0.000;2023-07-08T07:19:02;26.20;95.60
66710;DHT22;53624;0.000;0.000;2023-07-08T07:21:30;26.70;94.60
66710;DHT22;53624;0.000;0.000;2023-07-08T07:23:59;26.60;94.30
66710;DHT22;53624;0.000;0.000;2023-07-08T07:26:26;26.60;95.60
66710;DHT22;53624;0.000;0.000;2023-07-08T07:28:54;27.40;93.80
66710;DHT22;53624;0.000;0.000;2023-07-08T07:31:21;27.90;92.70
66710;DHT22;53624;0.000;0.000;2023-07-08T07:33:48;28.10;92.20
66710;DHT22;53624;0.000;0.000;2023-07-08T07:36:16;28.10;92.10
66710;DHT22;53624;0.000;0.000;2023-07-08T07:38:43;28.30;92.50
66710;DHT22;53624;0.000;0.000;2023-07-08T07:41:12;28.70;91.80
66710;DHT22;53624;0.000;0.000;2023-07-08T07:43:40;28.70;91.20
66710;DHT22;53624;0.000;0.000;2023-07-08T07:46:07;29.10;90.40
66710;DHT22;53624;0.000;0.000;2023-07-08T07:48:36;29.00;90.20
66710;DHT22;53624;0.000;0.000;2023-07-08T07:51:04;28.70;89.10
66710;DHT22;53624;0.000;0.000;2023-07-08T07:53:31;28.90;90.00
66710;DHT22;53624;0.000;0.000;2023-07-08T07:55:59;28.40;89.80
66710;DHT22;53624;0.000;0.000;2023-07-08T07:58:28;27.60;91.00
66710;DHT22;53624;0.000;0.000;2023-07-08T08:00:55;27.70;90.10
66710;DHT22;53624;0.000;0.000;2023-07-08T08:03:23;28.00;90.50
66710;DHT22;53624;0.000;0.000;2023-07-08T08:05:50;28.10;91.00
66710;DHT22;53624;0.000;0.000;2023-07-08T08:08:18;28.20;90.60
66710;DHT22;53624;0.000;0.000;2023-07-08T08:10:46;28.40;91.40
66710;DHT22;53624;0.000;0.000;2023-07-08T08:13:13;28.60;91.10
66710;DHT22;53624;0.000;0.000;2023-07-08T08:15:42;28.90;91.00
66710;DHT22;53624;0.000;0.000;2023-07-08T08:18:10;28.70;91.30
66710;DHT22;53624;0.000;0.000;2023-07-08T08:20:37;28.70;90.30
66710;DHT22;53624;0.000;0.000;2023-07-08T08:23:05;28.70;90.50
66710;DHT22;53624;0.000;0.000;2023-07-08T08:25:33;28.50;90.00
66710;DHT22;53624;0.000;0.000;2023-07-08T08:28:01;28.90;91.20
66710;DHT22;53624;0.000;0.000;2023-07-08T08:30:28;29.20;91.60
66710;DHT22;53624;0.000;0.000;2023-07-08T08:32:57;29.50;90.10
66710;DHT22;53624;0.000;0.000;2023-07-08T08:35:26;29.50;88.40
66710;DHT22;53624;0.000;0.000;2023-07-08T08:37:53;29.20;90.40
66710;DHT22;53624;0.000;0.000;2023-07-08T08:40:21;28.90;89.80
66710;DHT22;53624;0.000;0.000;2023-07-08T08:42:52;29.00;89.80
66710;DHT22;53624;0.000;0.000;2023-07-08T08:45:20;28.80;90.60
66710;DHT22;53624;0.000;0.000;2023-07-08T08:47:51;29.40;90.50
66710;DHT22;53624;0.000;0.000;2023-07-08T08:50:24;29.60;87.20
66710;DHT22;53624;0.000;0.000;2023-07-08T08:52:53;29.60;89.00
66710;DHT22;53624;0.000;0.000;2023-07-08T08:55:21;29.60;90.90
66710;DHT22;53624;0.000;0.000;2023-07-08T08:57:51;29.80;90.10
66710;DHT22;53624;0.000;0.000;2023-07-08T09:00:22;29.50;89.50
66710;DHT22;53624;0.000;0.000;2023-07-08T09:02:52;29.40;89.20
66710;DHT22;53624;0.000;0.000;2023-07-08T09:05:20;29.30;87.10
66710;DHT22;53624;0.000;0.000;2023-07-08T09:07:54;29.10;87.30
66710;DHT22;53624;0.000;0.000;2023-07-08T09:10:29;29.60;89.00
66710;DHT22;53624;0.000;0.000;2023-07-08T09:12:59;29.50;87.30
66710;DHT22;53624;0.000;0.000;2023-07-08T09:15:29;29.50;85.50
66710;DHT22;53624;0.000;0.000;2023-07-08T09:17:57;29.60;87.40
66710;DHT22;53624;0.000;0.000;2023-07-08T09:20:28;29.80;86.10
66710;DHT22;53624;0.000;0.000;2023-07-08T09:22:59;29.80;84.40
66710;DHT22;53624;0.000;0.000;2023-07-08T09:25:30;29.50;85.70
66710;DHT22;53624;0.000;0.000;2023-07-08T09:27:59;29.60;85.70
66710;DHT22;53624;0.000;0.000;2023-07-08T09:30:27;29.60;85.90
66710;DHT22;53624;0.000;0.000;2023-07-08T09:32:56;29.70;85.50
66710;DHT22;53624;0.000;0.000;2023-07-08T09:35:24;29.60;84.40
66710;DHT22;53624;0.000;0.000;2023-07-08T09:37:53;29.50;83.40
66710;DHT22;53624;0.000;0.000;2023-07-08T09:40:23;29.60;84.20
66710;DHT22;53624;0.000;0.000;2023-07-08T09:43:01;29.70;83.30
66710;DHT22;53624;0.000;0.000;2023-07-08T09:45:29;30.00;85.00
66710;DHT22;53624;0.000;0.000;2023-07-08T09:48:13;30.00;82.50
66710;DHT22;53624;0.000;0.000;2023-07-08T09:50:42;30.00;81.40
66710;DHT22;53624;0.000;0.000;2023-07-08T09:53:11;30.10;86.70
66710;DHT22;53624;0.000;0.000;2023-07-08T09:55:41;30.30;86.70
66710;DHT22;53624;0.000;0.000;2023-07-08T09:58:09;30.50;89.00
66710;DHT22;53624;0.000;0.000;2023-07-08T10:00:38;30.40;85.00
66710;DHT22;53624;0.000;0.000;2023-07-08T10:03:08;30.20;83.70
66710;DHT22;53624;0.000;0.000;2023-07-08T10:05:40;30.50;88.40
66710;DHT22;53624;0.000;0.000;2023-07-08T10:08:10;30.20;81.50
66710;DHT22;53624;0.000;0.000;2023-07-08T10:10:40;30.10;81.40
66710;DHT22;53624;0.000;0.000;2023-07-08T10:13:11;30.30;83.10
66710;DHT22;53624;0.000;0.000;2023-07-08T10:15:43;30.10;82.00
66710;DHT22;53624;0.000;0.000;2023-07-08T10:18:12;30.60;80.40
66710;DHT22;53624;0.000;0.000;2023-07-08T10:20:44;30.70;79.10
66710;DHT22;53624;0.000;0.000;2023-07-08T10:23:16;30.90;78.20
66710;DHT22;53624;0.000;0.000;2023-07-08T10:25:49;30.60;81.00
66710;DHT22;53624;0.000;0.000;2023-07-08T10:28:26;30.40;81.30
66710;DHT22;53624;0.000;0.000;2023-07-08T10:30:57;30.50;84.10
66710;DHT22;53624;0.000;0.000;2023-07-08T10:33:33;30.60;80.80
66710;DHT22;53624;0.000;0.000;2023-07-08T10:36:11;30.70;85.80
66710;DHT22;53624;0.000;0.000;2023-07-08T10:38:44;30.70;83.40
66710;DHT22;53624;0.000;0.000;2023-07-08T10:41:15;30.40;81.70
66710;DHT22;53624;0.000;0.000;2023-07-08T10:43:53;30.60;81.60
66710;DHT22;53624;0.000;0.000;2023-07-08T10:46:26;30.80;86.50
66710;DHT22;53624;0.000;0.000;2023-07-08T10:51:43;30.70;85.00
66710;DHT22;53624;0.000;0.000;2023-07-08T10:54:15;30.70;84.20
66710;DHT22;53624;0.000;0.000;2023-07-08T10:56:50;30.60;85.70
66710;DHT22;53624;0.000;0.000;2023-07-08T10:59:20;30.70;83.60
66710;DHT22;53624;0.000;0.000;2023-07-08T11:01:57;30.60;83.60
66710;DHT22;53624;0.000;0.000;2023-07-08T11:04:31;30.40;85.10
66710;DHT22;53624;0.000;0.000;2023-07-08T11:07:04;30.50;82.70
66710;DHT22;53624;0.000;0.000;2023-07-08T11:09:37;30.50;82.50
66710;DHT22;53624;0.000;0.000;2023-07-08T11:12:11;30.50;82.60
66710;DHT22;53624;0.000;0.000;2023-07-08T11:14:45;30.80;82.10
66710;DHT22;53624;0.000;0.000;2023-07-08T11:17:15;30.70;84.80
66710;DHT22;53624;0.000;0.000;2023-07-08T11:19:47;30.80;83.40
66710;DHT22;53624;0.000;0.000;2023-07-08T11:22:16;30.90;83.10
66710;DHT22;53624;0.000;0.000;2023-07-08T11:24:45;30.80;85.60
66710;DHT22;53624;0.000;0.000;2023-07-08T11:27:16;30.80;82.60
66710;DHT22;53624;0.000;0.000;2023-07-08T11:29:50;30.60;82.30
66710;DHT22;53624;0.000;0.000;2023-07-08T11:32:20;30.90;83.80
66710;DHT22;53624;0.000;0.000;2023-07-08T11:34:50;31.10;87.60
66710;DHT22;53624;0.000;0.000;2023-07-08T11:37:18;31.30;84.20
66710;DHT22;53624;0.000;0.000;2023-07-08T11:39:52;31.30;86.70
66710;DHT22;53624;0.000;0.000;2023-07-08T11:42:23;31.20;87.20
66710;DHT22;53624;0.000;0.000;2023-07-08T11:44:52;31.40;86.60
66710;DHT22;53624;0.000;0.000;2023-07-08T11:47:24;31.50;85.10
66710;DHT22;53624;0.000;0.000;2023-07-08T11:49:52;31.40;83.70
66710;DHT22;53624;0.000;0.000;2023-07-08T11:52:21;31.20;79.60
66710;DHT22;53624;0.000;0.000;2023-07-08T11:54:55;31.30;82.00
66710;DHT22;53624;0.000;0.000;2023-07-08T11:57:27;31.40;84.70
66710;DHT22;53624;0.000;0.000;2023-07-08T12:00:06;31.40;87.20
66710;DHT22;53624;0.000;0.000;2023-07-08T12:02:47;31.60;84.80
66710;DHT22;53624;0.000;0.000;2023-07-08T12:05:15;31.40;82.90
66710;DHT22;53624;0.000;0.000;2023-07-08T12:07:44;31.30;82.30
66710;DHT22;53624;0.000;0.000;2023-07-08T12:10:15;31.40;83.30
66710;DHT22;53624;0.000;0.000;2023-07-08T12:12:45;31.50;89.60
66710;DHT22;53624;0.000;0.000;2023-07-08T12:15:15;31.60;84.60
66710;DHT22;53624;0.000;0.000;2023-07-08T12:17:44;31.50;84.30
66710;DHT22;53624;0.000;0.000;2023-07-08T12:20:16;31.50;82.90
66710;DHT22;53624;0.000;0.000;2023-07-08T12:22:44;31.50;81.40
66710;DHT22;53624;0.000;0.000;2023-07-08T12:25:12;31.60;81.50
66710;DHT22;53624;0.000;0.000;2023-07-08T12:27:42;31.80;84.10
66710;DHT22;53624;0.000;0.000;2023-07-08T12:30:12;31.80;81.10
66710;DHT22;53624;0.000;0.000;2023-07-08T12:32:39;31.80;81.40
66710;DHT22;53624;0.000;0.000;2023-07-08T12:35:08;31.90;80.70
66710;DHT22;53624;0.000;0.000;2023-07-08T12:37:45;32.00;84.40
66710;DHT22;53624;0.000;0.000;2023-07-08T12:40:13;32.00;80.40
66710;DHT22;53624;0.000;0.000;2023-07-08T12:42:41;31.90;80.20
66710;DHT22;53624;0.000;0.000;2023-07-08T12:45:13;31.80;81.40
66710;DHT22;53624;0.000;0.000;2023-07-08T12:47:42;31.60;81.30
66710;DHT22;53624;0.000;0.000;2023-07-08T12:50:09;31.40;81.90
66710;DHT22;53624;0.000;0.000;2023-07-08T12:52:37;31.40;80.40
66710;DHT22;53624;0.000;0.000;2023-07-08T12:55:05;31.50;88.40
66710;DHT22;53624;0.000;0.000;2023-07-08T12:57:33;31.40;82.70
66710;DHT22;53624;0.000;0.000;2023-07-08T13:00:01;31.40;80.90
66710;DHT22;53624;0.000;0.000;2023-07-08T13:02:31;31.20;82.20
66710;DHT22;53624;0.000;0.000;2023-07-08T13:05:00;31.30;84.40
66710;DHT22;53624;0.000;0.000;2023-07-08T13:07:32;31.30;85.30
66710;DHT22;53624;0.000;0.000;2023-07-08T13:10:01;31.20;84.20
66710;DHT22;53624;0.000;0.000;2023-07-08T13:12:29;31.20;84.80
66710;DHT22;53624;0.000;0.000;2023-07-08T13:14:58;31.10;84.80
66710;DHT22;53624;0.000;0.000;2023-07-08T13:17:27;31.00;85.60
66710;DHT22;53624;0.000;0.000;2023-07-08T13:19:55;31.20;84.80
66710;DHT22;53624;0.000;0.000;2023-07-08T13:22:24;31.40;85.10
66710;DHT22;53624;0.000;0.000;2023-07-08T13:24:58;31.40;83.40
66710;DHT22;53624;0.000;0.000;2023-07-08T13:27:26;31.60;82.40
66710;DHT22;53624;0.000;0.000;2023-07-08T13:29:54;31.70;86.10
66710;DHT22;53624;0.000;0.000;2023-07-08T13:32:28;31.70;85.60
66710;DHT22;53624;0.000;0.000;2023-07-08T13:34:57;31.80;85.80
66710;DHT22;53624;0.000;0.000;2023-07-08T13:37:25;31.80;84.70
66710;DHT22;53624;0.000;0.000;2023-07-08T13:39:53;31.80;82.30
66710;DHT22;53624;0.000;0.000;2023-07-08T13:42:20;31.80;82.20
66710;DHT22;53624;0.000;0.000;2023-07-08T13:44:48;31.90;80.90
66710;DHT22;53624;0.000;0.000;2023-07-08T13:47:20;32.00;83.10
66710;DHT22;53624;0.000;0.000;2023-07-08T13:49:48;32.00;77.30
66710;DHT22;53624;0.000;0.000;2023-07-08T13:52:20;32.10;76.80
66710;DHT22;53624;0.000;0.000;2023-07-08T13:54:49;32.20;78.40
66710;DHT22;53624;0.000;0.000;2023-07-08T13:57:19;32.10;80.10
66710;DHT22;53624;0.000;0.000;2023-07-08T13:59:48;32.20;78.60
66710;DHT22;53624;0.000;0.000;2023-07-08T14:02:16;32.20;78.10
66710;DHT22;53624;0.000;0.000;2023-07-08T14:04:45;32.20;80.30
66710;DHT22;53624;0.000;0.000;2023-07-08T14:07:13;32.30;82.10
66710;DHT22;53624;0.000;0.000;2023-07-08T14:09:44;32.40;82.10
66710;DHT22;53624;0.000;0.000;2023-07-08T14:12:11;32.40;79.70
66710;DHT22;53624;0.000;0.000;2023-07-08T14:14:39;32.50;80.00
66710;DHT22;53624;0.000;0.000;2023-07-08T14:17:08;32.40;81.50
66710;DHT22;53624;0.000;0.000;2023-07-08T14:19:36;32.30;78.30
66710;DHT22;53624;0.000;0.000;2023-07-08T14:22:09;32.20;77.30
66710;DHT22;53624;0.000;0.000;2023-07-08T14:24:41;32.00;74.60
66710;DHT22;53624;0.000;0.000;2023-07-08T14:27:10;32.10;76.30
66710;DHT22;53624;0.000;0.000;2023-07-08T14:29:39;32.30;77.30
66710;DHT22;53624;0.000;0.000;2023-07-08T14:32:09;32.30;76.90
66710;DHT22;53624;0.000;0.000;2023-07-08T14:34:38;32.40;77.70
66710;DHT22;53624;0.000;0.000;2023-07-08T14:37:08;32.50;79.00
66710;DHT22;53624;0.000;0.000;2023-07-08T14:39:39;32.50;78.40
66710;DHT22;53624;0.000;0.000;2023-07-08T14:42:07;32.50;78.50
66710;DHT22;53624;0.000;0.000;2023-07-08T14:44:39;32.50;79.50
66710;DHT22;53624;0.000;0.000;2023-07-08T14:47:08;32.40;73.80
66710;DHT22;53624;0.000;0.000;2023-07-08T14:49:35;32.50;76.80
66710;DHT22;53624;0.000;0.000;2023-07-08T14:52:03;32.60;77.50
66710;DHT22;53624;0.000;0.000;2023-07-08T14:54:31;32.50;79.60
66710;DHT22;53624;0.000;0.000;2023-07-08T14:56:58;32.60;78.90
66710;DHT22;53624;0.000;0.000;2023-07-08T14:59:27;32.60;81.20
66710;DHT22;53624;0.000;0.000;2023-07-08T15:01:57;32.60;78.90
66710;DHT22;53624;0.000;0.000;2023-07-08T15:04:25;32.60;80.70
66710;DHT22;53624;0.000;0.000;2023-07-08T15:06:52;32.50;78.20
66710;DHT22;53624;0.000;0.000;2023-07-08T15:09:22;32.50;78.40
66710;DHT22;53624;0.000;0.000;2023-07-08T15:11:50;32.50;75.60
66710;DHT22;53624;0.000;0.000;2023-07-08T15:14:19;32.50;76.70
66710;DHT22;53624;0.000;0.000;2023-07-08T15:16:47;32.50;79.70
66710;DHT22;53624;0.000;0.000;2023-07-08T15:19:16;32.50;79.30
66710;DHT22;53624;0.000;0.000;2023-07-08T15:21:44;32.50;73.80
66710;DHT22;53624;0.000;0.000;2023-07-08T15:24:13;32.50;76.70
66710;DHT22;53624;0.000;0.000;2023-07-08T15:26:41;32.50;77.70
66710;DHT22;53624;0.000;0.000;2023-07-08T15:29:10;32.40;77.30
66710;DHT22;53624;0.000;0.000;2023-07-08T15:31:39;32.30;77.80
66710;DHT22;53624;0.000;0.000;2023-07-08T15:34:07;32.40;73.70
66710;DHT22;53624;0.000;0.000;2023-07-08T15:36:40;32.30;76.40
66710;DHT22;53624;0.000;0.000;2023-07-08T15:39:07;32.30;79.00
66710;DHT22;53624;0.000;0.000;2023-07-08T15:41:36;32.30;79.50
66710;DHT22;53624;0.000;0.000;2023-07-08T15:44:04;32.20;79.90
66710;DHT22;53624;0.000;0.000;2023-07-08T15:46:32;32.30;79.20
66710;DHT22;53624;0.000;0.000;2023-07-08T15:49:00;32.20;81.50
66710;DHT22;53624;0.000;0.000;2023-07-08T15:51:27;32.20;81.10
66710;DHT22;53624;0.000;0.000;2023-07-08T15:53:56;32.30;78.30
66710;DHT22;53624;0.000;0.000;2023-07-08T15:56:24;32.20;80.40
66710;DHT22;53624;0.000;0.000;2023-07-08T15:58:52;32.10;81.10
66710;DHT22;53624;0.000;0.000;2023-07-08T16:01:20;32.00;81.10
66710;DHT22;53624;0.000;0.000;2023-07-08T16:03:49;31.90;78.20
66710;DHT22;53624;0.000;0.000;2023-07-08T16:06:16;31.90;79.40
66710;DHT22;53624;0.000;0.000;2023-07-08T16:08:44;31.80;77.30
66710;DHT22;53624;0.000;0.000;2023-07-08T16:11:15;31.80;77.10
66710;DHT22;53624;0.000;0.000;2023-07-08T16:13:43;31.80;76.10
66710;DHT22;53624;0.000;0.000;2023-07-08T16:16:11;31.80;77.60
66710;DHT22;53624;0.000;0.000;2023-07-08T16:18:39;31.80;78.70
66710;DHT22;53624;0.000;0.000;2023-07-08T16:21:07;31.70;78.80
66710;DHT22;53624;0.000;0.000;2023-07-08T16:23:34;31.70;80.20
66710;DHT22;53624;0.000;0.000;2023-07-08T16:26:02;31.60;80.00
66710;DHT22;53624;0.000;0.000;2023-07-08T16:28:34;31.60;77.40
66710;DHT22;53624;0.000;0.000;2023-07-08T16:31:08;31.50;79.20
66710;DHT22;53624;0.000;0.000;2023-07-08T16:33:36;31.40;78.40
66710;DHT22;53624;0.000;0.000;2023-07-08T16:36:04;31.30;79.00
66710;DHT22;53624;0.000;0.000;2023-07-08T16:38:31;31.20;80.70
66710;DHT22;53624;0.000;0.000;2023-07-08T16:40:59;31.10;81.60
66710;DHT22;53624;0.000;0.000;2023-07-08T16:43:28;31.00;82.60
66710;DHT22;53624;0.000;0.000;2023-07-08T16:45:58;30.90;82.30